createdAt,value
2024-05-09T00:00:40.035Z,16.89
2024-05-09T00:03:09.874Z,16.85
2024-05-09T00:05:38.416Z,16.90
2024-05-09T00:08:05.941Z,16.79
2024-05-09T00:10:37.203Z,16.73
2024-05-09T00:13:10.437Z,16.77
2024-05-09T00:15:38.262Z,16.78
2024-05-09T00:18:07.697Z,16.72
2024-05-09T00:20:39.195Z,16.67
2024-05-09T00:23:12.558Z,16.62
2024-05-09T00:25:44.378Z,16.47
2024-05-09T00:28:12.377Z,16.54
2024-05-09T00:30:39.757Z,16.64
2024-05-09T00:33:08.375Z,16.74
2024-05-09T00:35:36.823Z,16.80
2024-05-09T00:38:04.506Z,16.82
2024-05-09T00:40:40.484Z,16.81
2024-05-09T00:43:10.683Z,16.87
2024-05-09T00:45:37.921Z,16.87
2024-05-09T00:48:07.803Z,16.91
2024-05-09T00:50:38.836Z,16.86
2024-05-09T00:53:11.855Z,16.90
2024-05-09T00:55:40.231Z,16.95
2024-05-09T00:58:09.663Z,16.84
2024-05-09T01:00:39.987Z,16.82
2024-05-09T01:03:10.802Z,16.93
2024-05-09T01:05:40.192Z,16.93
2024-05-09T01:08:08.728Z,16.89
2024-05-09T01:10:37.014Z,16.90
2024-05-09T01:13:07.647Z,16.93
2024-05-09T01:15:35.874Z,16.98
2024-05-09T01:18:09.823Z,16.99
2024-05-09T01:20:42.203Z,17.06
2024-05-09T01:23:12.562Z,17.17
2024-05-09T01:25:40.825Z,17.16
2024-05-09T01:28:07.767Z,17.06
2024-05-09T01:30:37.072Z,17.04
2024-05-09T01:33:07.349Z,17.05
2024-05-09T01:35:36.372Z,16.93
2024-05-09T01:38:03.429Z,16.89
2024-05-09T01:40:37.236Z,16.85
2024-05-09T01:43:10.855Z,16.68
2024-05-09T01:45:41.942Z,16.53
2024-05-09T01:48:10.461Z,16.44
2024-05-09T01:50:41.515Z,16.49
2024-05-09T01:53:14.504Z,16.51
2024-05-09T01:55:42.578Z,16.47
2024-05-09T01:58:10.049Z,16.43
2024-05-09T02:00:57.194Z,16.35
2024-05-09T02:03:47.821Z,16.49
2024-05-09T02:06:15.032Z,16.62
2024-05-09T02:08:42.287Z,16.66
2024-05-09T02:11:10.749Z,16.66
2024-05-09T02:13:37.586Z,16.74
2024-05-09T02:16:04.720Z,16.84
2024-05-09T02:18:31.806Z,16.87
2024-05-09T02:20:58.696Z,16.91
2024-05-09T02:23:25.809Z,16.91
2024-05-09T02:25:52.758Z,16.86
2024-05-09T02:28:21.424Z,16.84
2024-05-09T02:30:48.203Z,16.89
2024-05-09T02:33:15.259Z,16.94
2024-05-09T02:35:43.624Z,16.92
2024-05-09T02:38:11.724Z,16.95
2024-05-09T02:40:39.988Z,17.06
2024-05-09T02:43:10.353Z,17.17
2024-05-09T02:45:40.759Z,17.26
2024-05-09T02:48:10.967Z,17.33
2024-05-09T02:50:40.824Z,17.36
2024-05-09T02:53:09.235Z,17.41
2024-05-09T02:55:40.439Z,17.45
2024-05-09T02:58:07.739Z,17.47
2024-05-09T03:00:39.379Z,17.50
2024-05-09T03:03:10.972Z,17.55
2024-05-09T03:05:40.815Z,17.57
2024-05-09T03:08:08.243Z,17.62
2024-05-09T03:10:37.548Z,17.63
2024-05-09T03:13:15.094Z,17.58
2024-05-09T03:15:43.694Z,17.55
2024-05-09T03:18:11.427Z,17.43
2024-05-09T03:20:39.233Z,17.43
2024-05-09T03:23:09.152Z,17.38
2024-05-09T03:25:36.968Z,17.34
2024-05-09T03:28:04.117Z,17.40
2024-05-09T03:30:39.642Z,17.43
2024-05-09T03:33:15.443Z,17.46
2024-05-09T03:35:44.046Z,17.50
2024-05-09T03:38:11.029Z,17.49
2024-05-09T03:40:46.682Z,17.46
2024-05-09T03:43:14.299Z,17.47
2024-05-09T03:45:42.836Z,17.41
2024-05-09T03:48:10.229Z,17.41
2024-05-09T03:50:37.877Z,17.45
2024-05-09T03:53:05.500Z,17.48
2024-05-09T03:55:32.575Z,17.52
2024-05-09T03:57:59.563Z,17.54
2024-05-09T04:00:35.139Z,17.46
2024-05-09T04:03:08.747Z,17.41
2024-05-09T04:05:39.801Z,17.43
2024-05-09T04:08:07.577Z,17.47
2024-05-09T04:10:35.318Z,17.47
2024-05-09T04:13:03.497Z,17.46
2024-05-09T04:15:30.952Z,17.44
2024-05-09T04:17:58.403Z,17.43
2024-05-09T04:20:35.891Z,17.43
2024-05-09T04:23:07.887Z,17.33
2024-05-09T04:25:35.632Z,17.29
2024-05-09T04:28:02.647Z,17.33
2024-05-09T04:30:37.150Z,17.39
2024-05-09T04:33:08.848Z,17.39
2024-05-09T04:35:38.020Z,17.36
2024-05-09T04:38:05.886Z,17.37
2024-05-09T04:40:36.000Z,17.40
2024-05-09T04:43:05.308Z,17.48
2024-05-09T04:45:32.521Z,17.40
2024-05-09T04:47:59.766Z,17.20
2024-05-09T04:50:35.528Z,17.02
2024-05-09T04:53:06.345Z,16.81
2024-05-09T04:55:34.123Z,16.56
2024-05-09T04:58:01.810Z,16.30
2024-05-09T05:00:35.815Z,16.13
2024-05-09T05:03:11.037Z,15.99
2024-05-09T05:05:41.805Z,15.83
2024-05-09T05:08:13.385Z,15.71
2024-05-09T05:10:41.729Z,15.66
2024-05-09T05:13:22.690Z,15.63
2024-05-09T05:15:53.424Z,15.56
2024-05-09T05:18:21.216Z,15.50
2024-05-09T05:20:49.195Z,15.45
2024-05-09T05:23:18.811Z,15.39
2024-05-09T05:25:50.670Z,15.33
2024-05-09T05:28:18.119Z,15.30
2024-05-09T05:30:46.002Z,15.31
2024-05-09T05:33:14.510Z,15.32
2024-05-09T05:35:42.284Z,15.28
2024-05-09T05:38:10.607Z,15.22
2024-05-09T05:40:38.871Z,15.19
2024-05-09T05:43:10.888Z,15.17
2024-05-09T05:45:39.014Z,15.13
2024-05-09T05:48:07.569Z,15.08
2024-05-09T05:50:37.538Z,15.02
2024-05-09T05:53:07.951Z,14.99
2024-05-09T05:55:36.963Z,14.99
2024-05-09T05:58:04.156Z,15.02
2024-05-09T06:00:38.242Z,15.00
2024-05-09T06:03:08.191Z,14.99
2024-05-09T06:05:36.686Z,14.99
2024-05-09T06:08:04.068Z,15.01
2024-05-09T06:10:37.842Z,15.02
2024-05-09T06:13:07.419Z,15.06
2024-05-09T06:15:34.482Z,15.06
2024-05-09T06:18:01.819Z,15.11
2024-05-09T06:20:35.719Z,15.19
2024-05-09T06:23:06.231Z,15.24
2024-05-09T06:25:33.727Z,15.24
2024-05-09T06:28:01.621Z,15.24
2024-05-09T06:30:37.061Z,15.27
2024-05-09T06:33:08.845Z,15.28
2024-05-09T06:35:36.965Z,15.29
2024-05-09T06:38:04.494Z,15.33
2024-05-09T06:40:37.375Z,15.35
2024-05-09T06:43:13.493Z,15.38
2024-05-09T06:45:40.745Z,15.37
2024-05-09T06:48:09.817Z,15.38
2024-05-09T06:50:38.902Z,15.39
2024-05-09T06:53:07.901Z,15.38
2024-05-09T06:55:34.949Z,15.41
2024-05-09T06:58:01.843Z,15.45
2024-05-09T07:00:35.768Z,15.52
2024-05-09T07:03:10.346Z,15.59
2024-05-09T07:05:37.932Z,15.63
2024-05-09T07:08:06.258Z,15.67
2024-05-09T07:10:35.542Z,15.66
2024-05-09T07:13:03.247Z,15.64
2024-05-09T07:15:30.354Z,15.64
2024-05-09T07:17:57.413Z,15.66
2024-05-09T07:20:32.383Z,15.68
2024-05-09T07:23:03.262Z,15.71
2024-05-09T07:25:30.687Z,15.73
2024-05-09T07:27:57.978Z,15.70
2024-05-09T07:30:32.639Z,15.67
2024-05-09T07:33:02.301Z,15.69
2024-05-09T07:35:30.252Z,15.70
2024-05-09T07:37:57.633Z,15.72
2024-05-09T07:40:32.813Z,15.75
2024-05-09T07:43:13.372Z,15.84
2024-05-09T07:45:50.415Z,15.87
2024-05-09T07:52:38.600Z,15.91
2024-05-09T07:53:49.096Z,15.92
2024-05-09T07:56:21.733Z,16.01
2024-05-09T07:58:52.107Z,16.08
2024-05-09T08:01:20.019Z,16.08
2024-05-09T08:03:47.441Z,16.08
2024-05-09T08:06:14.683Z,16.07
2024-05-09T08:08:41.780Z,16.04
2024-05-09T08:11:08.763Z,16.01
2024-05-09T08:13:35.572Z,16.04
2024-05-09T08:16:02.461Z,16.05
2024-05-09T08:18:29.541Z,16.07
2024-05-09T08:20:56.852Z,16.10
2024-05-09T08:23:26.185Z,16.18
2024-05-09T08:25:53.176Z,16.24
2024-05-09T08:28:20.791Z,16.30
2024-05-09T08:30:48.178Z,16.31
2024-05-09T08:33:15.489Z,16.26
2024-05-09T08:35:42.598Z,16.28
2024-05-09T08:38:09.605Z,16.32
2024-05-09T08:40:37.957Z,16.34
2024-05-09T08:43:11.367Z,16.35
2024-05-09T08:45:45.364Z,16.36
2024-05-09T08:48:15.470Z,16.30
2024-05-09T08:50:44.976Z,16.27
2024-05-09T08:53:15.141Z,16.29
2024-05-09T08:55:44.022Z,16.32
2024-05-09T08:58:16.728Z,16.52
2024-05-09T09:00:45.378Z,16.71
2024-05-09T09:03:19.063Z,16.91
2024-05-09T09:05:54.332Z,17.14
2024-05-09T09:08:21.656Z,17.29
2024-05-09T09:10:49.255Z,17.40
2024-05-09T09:13:16.268Z,17.46
2024-05-09T09:15:50.561Z,17.41
2024-05-09T09:18:18.813Z,17.30
2024-05-09T09:20:46.080Z,17.13
2024-05-09T09:23:13.134Z,17.01
2024-05-09T09:25:40.938Z,16.92
2024-05-09T09:28:09.169Z,16.97
2024-05-09T09:30:43.335Z,17.02
2024-05-09T09:33:10.566Z,17.07
2024-05-09T09:35:39.766Z,17.11
2024-05-09T09:38:08.000Z,17.14
2024-05-09T09:40:40.644Z,17.19
2024-05-09T09:43:18.737Z,17.17
2024-05-09T09:45:48.959Z,17.24
2024-05-09T09:48:17.045Z,17.31
2024-05-09T09:50:45.460Z,17.38
2024-05-09T09:53:13.122Z,17.44
2024-05-09T09:55:40.452Z,17.50
2024-05-09T09:58:09.752Z,17.60
2024-05-09T10:00:39.355Z,17.67
2024-05-09T10:03:06.914Z,17.75
2024-05-09T10:05:35.245Z,17.74
2024-05-09T10:08:07.837Z,17.66
2024-05-09T10:10:35.881Z,17.66
2024-05-09T10:13:07.493Z,17.80
2024-05-09T10:15:48.368Z,17.94
2024-05-09T10:18:15.702Z,18.06
2024-05-09T10:20:46.702Z,18.21
2024-05-09T10:23:30.005Z,18.31
2024-05-09T10:26:01.807Z,18.35
2024-05-09T10:28:29.872Z,18.46
2024-05-09T10:31:11.403Z,18.52
2024-05-09T10:33:40.218Z,18.57
2024-05-09T10:36:23.247Z,18.51
2024-05-09T10:38:52.139Z,18.46
2024-05-09T10:41:20.450Z,18.47
2024-05-09T10:43:48.225Z,18.45
2024-05-09T10:46:16.514Z,18.48
2024-05-09T10:48:45.077Z,18.53
2024-05-09T10:51:13.289Z,18.49
2024-05-09T10:53:44.600Z,18.44
2024-05-09T10:56:13.411Z,18.42
2024-05-09T10:58:40.435Z,18.40
2024-05-09T11:01:08.869Z,18.41
2024-05-09T11:03:37.030Z,18.56
2024-05-09T11:06:05.463Z,18.72
2024-05-09T11:08:33.627Z,19.02
2024-05-09T11:11:03.012Z,19.35
2024-05-09T11:13:31.769Z,19.58
2024-05-09T11:16:00.138Z,19.75
2024-05-09T11:18:32.155Z,19.93
2024-05-09T11:21:02.208Z,20.00
2024-05-09T11:23:32.026Z,19.99
2024-05-09T11:25:59.257Z,19.97
2024-05-09T11:28:29.399Z,19.94
2024-05-09T11:31:10.201Z,19.93
2024-05-09T11:33:43.336Z,19.90
2024-05-09T11:36:10.691Z,19.97
2024-05-09T11:38:37.585Z,20.04
2024-05-09T11:41:05.614Z,20.38
2024-05-09T11:43:32.713Z,20.65
2024-05-09T11:46:02.828Z,20.80
2024-05-09T11:48:30.628Z,20.92
2024-05-09T11:50:57.675Z,21.04
2024-05-09T11:53:24.544Z,21.03
2024-05-09T11:55:51.380Z,20.99
2024-05-09T11:58:19.168Z,20.93
2024-05-09T12:00:46.883Z,21.01
2024-05-09T12:03:14.470Z,21.12
2024-05-09T12:05:41.783Z,21.29
2024-05-09T12:08:09.076Z,21.60
2024-05-09T12:10:36.969Z,21.76
2024-05-09T12:13:06.321Z,21.75
2024-05-09T12:15:37.150Z,21.60
2024-05-09T12:18:05.938Z,21.47
2024-05-09T12:20:37.676Z,21.31
2024-05-09T12:23:09.762Z,21.49
2024-05-09T12:25:38.682Z,21.79
2024-05-09T12:28:06.513Z,22.01
2024-05-09T12:30:38.172Z,22.26
2024-05-09T12:33:12.571Z,22.49
2024-05-09T12:35:43.360Z,22.63
2024-05-09T12:38:12.936Z,22.80
2024-05-09T12:40:39.821Z,22.99
2024-05-09T12:43:08.575Z,23.07
2024-05-09T12:45:37.214Z,22.89
2024-05-09T12:48:07.531Z,22.84
2024-05-09T12:50:35.200Z,22.85
2024-05-09T12:53:03.798Z,22.86
2024-05-09T12:55:40.390Z,22.94
2024-05-09T12:58:18.651Z,23.00
2024-05-09T13:00:46.195Z,23.03
2024-05-09T13:03:13.779Z,23.05
2024-05-09T13:05:47.030Z,23.13
2024-05-09T13:08:14.162Z,23.15
2024-05-09T13:10:41.623Z,23.31
2024-05-09T13:13:11.962Z,23.43
2024-05-09T13:15:39.293Z,23.50
2024-05-09T13:18:07.081Z,23.51
2024-05-09T13:20:36.150Z,23.47
2024-05-09T13:23:05.515Z,23.49
2024-05-09T13:25:35.118Z,23.43
2024-05-09T13:28:03.770Z,23.43
2024-05-09T13:30:39.088Z,23.49
2024-05-09T13:33:14.269Z,23.47
2024-05-09T13:35:48.784Z,23.39
2024-05-09T13:38:20.152Z,23.39
2024-05-09T13:40:47.999Z,23.38
2024-05-09T13:43:15.382Z,23.35
2024-05-09T13:45:42.799Z,23.33
2024-05-09T13:48:10.442Z,23.28
2024-05-09T13:50:37.652Z,23.27
2024-05-09T13:53:06.718Z,23.30
2024-05-09T13:55:35.538Z,23.27
2024-05-09T13:58:03.103Z,23.22
2024-05-09T14:00:42.394Z,23.10
2024-05-09T14:03:15.713Z,23.11
2024-05-09T14:05:43.509Z,23.10
2024-05-09T14:08:11.297Z,23.07
2024-05-09T14:10:44.494Z,23.14
2024-05-09T14:13:12.348Z,23.19
2024-05-09T14:15:39.592Z,23.28
2024-05-09T14:18:10.357Z,23.36
2024-05-09T14:20:39.675Z,23.43
2024-05-09T14:23:06.601Z,23.41
2024-05-09T14:25:37.668Z,23.22
2024-05-09T14:28:07.503Z,23.07
2024-05-09T14:30:37.627Z,22.94
2024-05-09T14:33:07.131Z,22.79
2024-05-09T14:35:35.038Z,22.69
2024-05-09T14:38:02.484Z,22.66
2024-05-09T14:40:39.378Z,22.70
2024-05-09T14:43:14.728Z,22.63
2024-05-09T14:45:43.495Z,22.56
2024-05-09T14:48:11.962Z,22.53
2024-05-09T14:50:40.602Z,22.49
2024-05-09T14:53:09.223Z,22.42
2024-05-09T14:55:37.685Z,22.35
2024-05-09T14:58:08.901Z,22.29
2024-05-09T15:00:44.749Z,22.30
2024-05-09T15:03:15.557Z,22.28
2024-05-09T15:05:42.770Z,22.23
2024-05-09T15:08:09.755Z,22.19
2024-05-09T15:10:38.811Z,22.17
2024-05-09T15:13:08.055Z,22.23
2024-05-09T15:15:37.148Z,22.29
2024-05-09T15:18:05.533Z,22.36
2024-05-09T15:20:36.116Z,22.46
2024-05-09T15:23:06.071Z,22.59
2024-05-09T15:25:34.026Z,22.69
2024-05-09T15:28:01.302Z,22.65
2024-05-09T15:30:31.741Z,22.61
2024-05-09T15:33:01.440Z,22.59
2024-05-09T15:35:28.642Z,22.54
2024-05-09T15:37:55.852Z,22.46
2024-05-09T15:40:31.758Z,22.42
2024-05-09T15:43:06.508Z,22.37
2024-05-09T15:45:34.680Z,22.35
2024-05-09T15:48:03.256Z,22.37
2024-05-09T15:50:37.494Z,22.36
2024-05-09T15:53:09.126Z,22.35
2024-05-09T15:55:37.344Z,22.34
2024-05-09T15:58:05.723Z,22.33
2024-05-09T16:00:38.531Z,22.28
2024-05-09T16:03:13.575Z,22.26
2024-05-09T16:05:43.437Z,22.23
2024-05-09T16:08:12.340Z,22.27
2024-05-09T16:10:44.206Z,22.30
2024-05-09T16:13:12.658Z,22.38
2024-05-09T16:15:39.858Z,22.46
2024-05-09T16:18:07.529Z,22.53
2024-05-09T16:20:39.824Z,22.55
2024-05-09T16:23:09.467Z,22.60
2024-05-09T16:25:37.127Z,22.56
2024-05-09T16:28:08.752Z,22.46
2024-05-09T16:30:39.273Z,22.48
2024-05-09T16:33:06.727Z,22.53
2024-05-09T16:35:34.962Z,22.57
2024-05-09T16:38:03.330Z,22.60
2024-05-09T16:40:37.643Z,22.65
2024-05-09T16:43:10.971Z,22.70
2024-05-09T16:45:40.197Z,22.74
2024-05-09T16:48:08.434Z,22.80
2024-05-09T16:50:36.496Z,22.83
2024-05-09T16:53:05.019Z,22.81
2024-05-09T16:55:32.857Z,22.79
2024-05-09T16:58:00.201Z,22.72
2024-05-09T17:00:38.121Z,22.66
2024-05-09T17:03:10.923Z,22.68
2024-05-09T17:05:39.022Z,22.65
2024-05-09T17:08:06.893Z,22.59
2024-05-09T17:10:35.375Z,22.54
2024-05-09T17:13:04.406Z,22.50
2024-05-09T17:15:32.880Z,22.43
2024-05-09T17:18:00.764Z,22.30
2024-05-09T17:20:33.179Z,22.26
2024-05-09T17:23:03.769Z,22.20
2024-05-09T17:25:30.826Z,22.17
2024-05-09T17:28:05.239Z,22.10
2024-05-09T17:30:36.584Z,22.08
2024-05-09T17:33:06.496Z,22.07
2024-05-09T17:35:33.761Z,22.06
2024-05-09T17:38:01.853Z,22.03
2024-05-09T17:40:33.715Z,22.01
2024-05-09T17:43:04.623Z,22.00
2024-05-09T17:45:32.431Z,21.99
2024-05-09T17:48:00.009Z,22.01
2024-05-09T17:50:34.962Z,21.95
2024-05-09T17:53:04.418Z,21.86
2024-05-09T17:55:31.791Z,21.80
2024-05-09T17:57:58.829Z,21.77
2024-05-09T18:00:36.445Z,21.71
2024-05-09T18:03:07.393Z,21.65
2024-05-09T18:05:38.090Z,21.61
2024-05-09T18:08:06.662Z,21.51
2024-05-09T18:10:37.784Z,21.50
2024-05-09T18:13:08.238Z,21.47
2024-05-09T18:15:35.659Z,21.43
2024-05-09T18:18:03.579Z,21.37
2024-05-09T18:20:39.892Z,21.28
2024-05-09T18:23:11.544Z,21.21
2024-05-09T18:25:38.597Z,21.15
2024-05-09T18:28:06.500Z,21.13
2024-05-09T18:30:36.211Z,21.10
2024-05-09T18:33:06.540Z,21.10
2024-05-09T18:35:34.928Z,21.18
2024-05-09T18:38:01.833Z,21.33
2024-05-09T18:40:34.251Z,21.37
2024-05-09T18:43:07.017Z,21.35
2024-05-09T18:45:35.998Z,21.31
2024-05-09T18:48:05.602Z,21.24
2024-05-09T18:50:37.313Z,21.16
2024-05-09T18:53:07.042Z,21.13
2024-05-09T18:55:33.954Z,21.12
2024-05-09T18:58:01.322Z,21.08
2024-05-09T19:00:34.683Z,21.04
2024-05-09T19:03:09.595Z,20.98
2024-05-09T19:05:39.666Z,20.98
2024-05-09T19:08:07.816Z,20.99
2024-05-09T19:10:36.111Z,20.96
2024-05-09T19:13:09.325Z,20.85
2024-05-09T19:15:40.174Z,20.79
2024-05-09T19:18:07.884Z,20.71
2024-05-09T19:20:36.565Z,20.56
2024-05-09T19:23:06.011Z,20.50
2024-05-09T19:25:33.464Z,20.42
2024-05-09T19:28:01.232Z,20.41
2024-05-09T19:30:37.238Z,20.26
2024-05-09T19:33:08.570Z,20.20
2024-05-09T19:35:35.911Z,20.22
2024-05-09T19:38:02.970Z,20.30
2024-05-09T19:40:32.456Z,20.37
2024-05-09T19:43:02.697Z,20.40
2024-05-09T19:45:30.312Z,20.43
2024-05-09T19:47:57.593Z,20.46
2024-05-09T19:50:32.529Z,20.50
2024-05-09T19:53:07.768Z,20.55
2024-05-09T19:55:34.988Z,20.46
2024-05-09T19:58:05.140Z,20.25
2024-05-09T20:00:39.554Z,20.00
2024-05-09T20:03:09.234Z,19.81
2024-05-09T20:05:37.168Z,19.63
2024-05-09T20:08:05.329Z,19.53
2024-05-09T20:10:34.617Z,19.50
2024-05-09T20:13:04.990Z,19.47
2024-05-09T20:15:35.121Z,19.39
2024-05-09T20:18:02.710Z,19.29
2024-05-09T20:20:37.309Z,19.25
2024-05-09T20:23:08.440Z,19.19
2024-05-09T20:25:35.381Z,19.12
2024-05-09T20:28:02.679Z,19.01
2024-05-09T20:30:32.854Z,18.98
2024-05-09T20:33:07.077Z,19.02
2024-05-09T20:35:35.467Z,19.02
2024-05-09T20:38:03.324Z,19.01
2024-05-09T20:40:35.172Z,18.90
2024-05-09T20:43:06.255Z,18.85
2024-05-09T20:45:33.969Z,18.85
2024-05-09T20:48:01.815Z,18.89
2024-05-09T20:50:36.980Z,18.91
2024-05-09T20:53:16.335Z,18.89
2024-05-09T20:55:44.639Z,18.93
2024-05-09T20:58:12.350Z,18.90
2024-05-09T21:00:42.929Z,18.81
2024-05-09T21:03:13.456Z,18.86
2024-05-09T21:05:41.653Z,18.88
2024-05-09T21:08:08.876Z,18.73
2024-05-09T21:10:36.866Z,18.76
2024-05-09T21:13:07.476Z,18.84
2024-05-09T21:15:35.138Z,18.85
2024-05-09T21:18:02.560Z,19.01
2024-05-09T21:20:32.768Z,19.20
2024-05-09T21:23:01.449Z,19.28
2024-05-09T21:25:28.969Z,19.33
2024-05-09T21:27:55.992Z,19.22
2024-05-09T21:30:32.593Z,18.98
2024-05-09T21:33:13.161Z,18.81
2024-05-09T21:35:42.227Z,18.78
2024-05-09T21:38:09.240Z,18.67
2024-05-09T21:40:37.949Z,18.56
2024-05-09T21:43:07.214Z,18.49
2024-05-09T21:45:35.202Z,18.45
2024-05-09T21:48:06.314Z,18.42
2024-05-09T21:50:39.787Z,18.37
2024-05-09T21:53:12.751Z,18.36
2024-05-09T21:55:40.153Z,18.34
2024-05-09T21:58:07.221Z,18.26
2024-05-09T22:00:38.186Z,18.15
2024-05-09T22:03:07.970Z,18.06
2024-05-09T22:05:36.082Z,18.08
2024-05-09T22:08:03.844Z,18.26
2024-05-09T22:10:34.797Z,18.49
2024-05-09T22:13:04.138Z,18.61
2024-05-09T22:15:36.446Z,18.76
2024-05-09T22:18:04.744Z,18.88
2024-05-09T22:20:37.250Z,19.01
2024-05-09T22:23:06.407Z,19.11
2024-05-09T22:25:33.724Z,19.11
2024-05-09T22:28:02.285Z,19.09
2024-05-09T22:32:59.938Z,19.01
2024-05-09T22:35:26.863Z,19.01
2024-05-09T22:37:53.608Z,18.93
2024-05-09T22:40:29.153Z,18.70
2024-05-09T22:43:06.360Z,18.52
2024-05-09T22:45:33.714Z,18.31
2024-05-09T22:48:00.923Z,18.12
2024-05-09T22:50:32.887Z,17.96
2024-05-09T22:53:00.382Z,17.93
2024-05-09T22:55:27.550Z,17.95
2024-05-09T22:57:54.555Z,17.89
2024-05-09T23:00:29.381Z,17.94
2024-05-09T23:03:02.113Z,17.95
2024-05-09T23:05:29.960Z,17.90
2024-05-09T23:07:56.982Z,17.88
2024-05-09T23:10:31.758Z,17.81
2024-05-09T23:13:03.249Z,17.82
2024-05-09T23:15:30.673Z,18.00
2024-05-09T23:17:58.225Z,18.17
2024-05-09T23:20:35.873Z,18.31
2024-05-09T23:23:10.065Z,18.39
2024-05-09T23:25:38.280Z,18.47
2024-05-09T23:28:05.605Z,18.56
2024-05-09T23:30:37.848Z,18.70
2024-05-09T23:33:08.238Z,18.81
2024-05-09T23:35:35.425Z,18.91
2024-05-09T23:38:02.299Z,18.97
2024-05-09T23:40:37.897Z,19.01
2024-05-09T23:43:11.877Z,18.94
2024-05-09T23:45:39.720Z,18.95
2024-05-09T23:48:07.329Z,18.89
2024-05-09T23:50:37.693Z,18.82
2024-05-09T23:53:08.050Z,18.74
2024-05-09T23:55:36.190Z,18.71
2024-05-09T23:58:03.351Z,18.70
